sensor_id;sensor_type;location;lat;lon;timestamp;pressure;altitude;pressure_sealevel;temperature;humidity
54459;BME280;40368;49.350;8.152;2024-03-02T00:00:52;989.9;;;10.62;55.65
54459;BME280;40368;49.350;8.152;2024-03-02T00:01:53;989.9;;;10.62;55.54
54459;BME280;40368;49.350;8.152;2024-03-02T00:02:52;989.9;;;10.61;55.62
54459;BME280;40368;49.350;8.152;2024-03-02T00:03:52;989.9;;;10.63;55.75
54459;BME280;40368;49.350;8.152;2024-03-02T00:04:52;989.9;;;10.63;55.69
54459;BME280;40368;49.350;8.152;2024-03-02T00:05:52;989.9;;;10.62;55.62
54459;BME280;40368;49.350;8.152;2024-03-02T00:06:52;989.9;;;10.62;55.59
54459;BME280;40368;49.350;8.152;2024-03-02T00:07:52;989.9;;;10.63;55.6
54459;BME280;40368;49.350;8.152;2024-03-02T00:08:57;989.9;;;10.65;55.64
54459;BME280;40368;49.350;8.152;2024-03-02T00:09:52;989.8;;;10.68;55.5
54459;BME280;40368;49.350;8.152;2024-03-02T00:10:56;989.9;;;10.72;55.33
54459;BME280;40368;49.350;8.152;2024-03-02T00:11:52;989.8;;;10.77;55.06
54459;BME280;40368;49.350;8.152;2024-03-02T00:12:52;989.9;;;10.79;55.2
54459;BME280;40368;49.350;8.152;2024-03-02T00:13:52;989.9;;;10.81;54.92
54459;BME280;40368;49.350;8.152;2024-03-02T00:14:52;989.9;;;10.81;54.87
54459;BME280;40368;49.350;8.152;2024-03-02T00:15:52;989.9;;;10.78;54.96
54459;BME280;40368;49.350;8.152;2024-03-02T00:16:52;989.9;;;10.77;55.11
54459;BME280;40368;49.350;8.152;2024-03-02T00:17:52;989.9;;;10.76;54.98
54459;BME280;40368;49.350;8.152;2024-03-02T00:18:52;990;;;10.76;55.09
54459;BME280;40368;49.350;8.152;2024-03-02T00:19:52;990;;;10.72;55.07
54459;BME280;40368;49.350;8.152;2024-03-02T00:20:53;989.9;;;10.68;55.14
54459;BME280;40368;49.350;8.152;2024-03-02T00:21:52;990;;;10.65;55.2
54459;BME280;40368;49.350;8.152;2024-03-02T00:22:52;990;;;10.63;55.26
54459;BME280;40368;49.350;8.152;2024-03-02T00:23:52;990;;;10.63;55.35
54459;BME280;40368;49.350;8.152;2024-03-02T00:24:52;990;;;10.66;55.14
54459;BME280;40368;49.350;8.152;2024-03-02T00:25:53;989.9;;;10.69;55.18
54459;BME280;40368;49.350;8.152;2024-03-02T00:26:52;990;;;10.69;55.12
54459;BME280;40368;49.350;8.152;2024-03-02T00:27:52;990;;;10.69;55.03
54459;BME280;40368;49.350;8.152;2024-03-02T00:28:52;990;;;10.68;55.01
54459;BME280;40368;49.350;8.152;2024-03-02T00:29:52;990;;;10.66;55.17
54459;BME280;40368;49.350;8.152;2024-03-02T00:30:55;990.1;;;10.6;55.01
54459;BME280;40368;49.350;8.152;2024-03-02T00:31:52;990.1;;;10.54;55.35
54459;BME280;40368;49.350;8.152;2024-03-02T00:32:52;990;;;10.54;55.42
54459;BME280;40368;49.350;8.152;2024-03-02T00:33:53;990.1;;;10.53;55.35
54459;BME280;40368;49.350;8.152;2024-03-02T00:34:52;990;;;10.5;55.58
54459;BME280;40368;49.350;8.152;2024-03-02T00:35:52;990;;;10.48;55.44
54459;BME280;40368;49.350;8.152;2024-03-02T00:36:52;990;;;10.47;55.42
54459;BME280;40368;49.350;8.152;2024-03-02T00:37:52;990;;;10.47;55.53
54459;BME280;40368;49.350;8.152;2024-03-02T00:38:53;990;;;10.42;55.57
54459;BME280;40368;49.350;8.152;2024-03-02T00:39:52;990;;;10.43;55.6
54459;BME280;40368;49.350;8.152;2024-03-02T00:40:53;990;;;10.46;55.53
54459;BME280;40368;49.350;8.152;2024-03-02T00:41:52;990;;;10.5;55.58
54459;BME280;40368;49.350;8.152;2024-03-02T00:42:52;990;;;10.49;55.42
54459;BME280;40368;49.350;8.152;2024-03-02T00:43:56;990;;;10.48;55.52
54459;BME280;40368;49.350;8.152;2024-03-02T00:44:52;990;;;10.49;55.24
54459;BME280;40368;49.350;8.152;2024-03-02T00:45:52;990;;;10.49;55.36
54459;BME280;40368;49.350;8.152;2024-03-02T00:46:52;990;;;10.49;55.38
54459;BME280;40368;49.350;8.152;2024-03-02T00:47:52;990;;;10.51;55.43
54459;BME280;40368;49.350;8.152;2024-03-02T00:48:53;990;;;10.52;55.48
54459;BME280;40368;49.350;8.152;2024-03-02T00:49:52;990;;;10.53;55.27
54459;BME280;40368;49.350;8.152;2024-03-02T00:50:52;990;;;10.58;55.31
54459;BME280;40368;49.350;8.152;2024-03-02T00:51:53;990;;;10.62;55.28
54459;BME280;40368;49.350;8.152;2024-03-02T00:52:52;990;;;10.66;55.02
54459;BME280;40368;49.350;8.152;2024-03-02T00:53:52;990;;;10.69;54.92
54459;BME280;40368;49.350;8.152;2024-03-02T00:54:53;990;;;10.68;54.85
54459;BME280;40368;49.350;8.152;2024-03-02T00:55:52;990;;;10.66;54.79
54459;BME280;40368;49.350;8.152;2024-03-02T00:56:52;989.9;;;10.64;55.01
54459;BME280;40368;49.350;8.152;2024-03-02T00:57:52;990;;;10.64;54.92
54459;BME280;40368;49.350;8.152;2024-03-02T00:58:52;990;;;10.64;54.83
54459;BME280;40368;49.350;8.152;2024-03-02T00:59:53;989.9;;;10.65;54.8
54459;BME280;40368;49.350;8.152;2024-03-02T01:00:52;989.9;;;10.66;54.67
54459;BME280;40368;49.350;8.152;2024-03-02T01:01:52;990;;;10.66;54.76
54459;BME280;40368;49.350;8.152;2024-03-02T01:02:53;990;;;10.66;54.73
54459;BME280;40368;49.350;8.152;2024-03-02T01:03:52;989.9;;;10.62;54.79
54459;BME280;40368;49.350;8.152;2024-03-02T01:04:52;989.9;;;10.62;54.88
54459;BME280;40368;49.350;8.152;2024-03-02T01:05:52;990;;;10.63;54.86
54459;BME280;40368;49.350;8.152;2024-03-02T01:06:52;990;;;10.65;54.7
54459;BME280;40368;49.350;8.152;2024-03-02T01:07:52;990;;;10.64;54.69
54459;BME280;40368;49.350;8.152;2024-03-02T01:08:57;990;;;10.66;54.79
54459;BME280;40368;49.350;8.152;2024-03-02T01:09:52;990;;;10.68;54.8
54459;BME280;40368;49.350;8.152;2024-03-02T01:10:57;990;;;10.65;54.41
54459;BME280;40368;49.350;8.152;2024-03-02T01:11:52;989.9;;;10.6;54.74
54459;BME280;40368;49.350;8.152;2024-03-02T01:12:52;990;;;10.55;54.83
54459;BME280;40368;49.350;8.152;2024-03-02T01:13:52;990;;;10.53;54.9
54459;BME280;40368;49.350;8.152;2024-03-02T01:14:52;989.9;;;10.5;54.92
54459;BME280;40368;49.350;8.152;2024-03-02T01:15:52;990;;;10.49;54.97
54459;BME280;40368;49.350;8.152;2024-03-02T01:16:53;990;;;10.47;55.04
54459;BME280;40368;49.350;8.152;2024-03-02T01:17:52;989.9;;;10.46;55.02
54459;BME280;40368;49.350;8.152;2024-03-02T01:18:52;989.9;;;10.46;55.17
54459;BME280;40368;49.350;8.152;2024-03-02T01:19:53;989.9;;;10.43;54.94
54459;BME280;40368;49.350;8.152;2024-03-02T01:20:52;989.9;;;10.38;55.16
54459;BME280;40368;49.350;8.152;2024-03-02T01:21:52;989.9;;;10.35;55.09
54459;BME280;40368;49.350;8.152;2024-03-02T01:22:52;989.9;;;10.31;55.27
54459;BME280;40368;49.350;8.152;2024-03-02T01:23:52;989.9;;;10.29;55.38
54459;BME280;40368;49.350;8.152;2024-03-02T01:24:53;989.9;;;10.28;55.36
54459;BME280;40368;49.350;8.152;2024-03-02T01:25:52;989.9;;;10.25;55.38
54459;BME280;40368;49.350;8.152;2024-03-02T01:26:52;989.9;;;10.25;55.44
54459;BME280;40368;49.350;8.152;2024-03-02T01:27:52;990;;;10.22;55.46
54459;BME280;40368;49.350;8.152;2024-03-02T01:28:52;989.9;;;10.25;55.55
54459;BME280;40368;49.350;8.152;2024-03-02T01:29:52;989.9;;;10.25;55.41
54459;BME280;40368;49.350;8.152;2024-03-02T01:30:52;989.8;;;10.29;55.5
54459;BME280;40368;49.350;8.152;2024-03-02T01:31:52;989.8;;;10.33;55.37
54459;BME280;40368;49.350;8.152;2024-03-02T01:32:52;989.8;;;10.34;55.31
54459;BME280;40368;49.350;8.152;2024-03-02T01:33:52;989.8;;;10.37;55.34
54459;BME280;40368;49.350;8.152;2024-03-02T01:34:52;989.8;;;10.41;55.04
54459;BME280;40368;49.350;8.152;2024-03-02T01:35:52;989.8;;;10.4;55.04
54459;BME280;40368;49.350;8.152;2024-03-02T01:36:52;989.8;;;10.41;55.13
54459;BME280;40368;49.350;8.152;2024-03-02T01:37:52;989.8;;;10.44;54.85
54459;BME280;40368;49.350;8.152;2024-03-02T01:38:52;989.8;;;10.41;54.89
54459;BME280;40368;49.350;8.152;2024-03-02T01:39:52;989.8;;;10.42;54.99
54459;BME280;40368;49.350;8.152;2024-03-02T01:40:52;989.8;;;10.41;54.91
54459;BME280;40368;49.350;8.152;2024-03-02T01:41:52;989.8;;;10.44;55.19
54459;BME280;40368;49.350;8.152;2024-03-02T01:42:53;989.9;;;10.47;54.54
54459;BME280;40368;49.350;8.152;2024-03-02T01:43:53;989.8;;;10.43;54.61
54459;BME280;40368;49.350;8.152;2024-03-02T01:44:52;989.8;;;10.41;55.09
54459;BME280;40368;49.350;8.152;2024-03-02T01:45:53;989.9;;;10.43;54.77
54459;BME280;40368;49.350;8.152;2024-03-02T01:46:58;989.8;;;10.43;55.11
54459;BME280;40368;49.350;8.152;2024-03-02T01:47:54;989.8;;;10.44;54.65
54459;BME280;40368;49.350;8.152;2024-03-02T01:49:01;989.9;;;10.42;54.75
54459;BME280;40368;49.350;8.152;2024-03-02T01:49:54;989.9;;;10.41;54.68
54459;BME280;40368;49.350;8.152;2024-03-02T01:50:58;989.9;;;10.37;54.9
54459;BME280;40368;49.350;8.152;2024-03-02T01:51:59;989.9;;;10.35;54.77
54459;BME280;40368;49.350;8.152;2024-03-02T01:52:53;989.8;;;10.33;54.92
54459;BME280;40368;49.350;8.152;2024-03-02T01:54:11;989.8;;;10.34;54.93
54459;BME280;40368;49.350;8.152;2024-03-02T01:54:52;989.8;;;10.32;55.05
54459;BME280;40368;49.350;8.152;2024-03-02T01:55:52;989.8;;;10.28;54.77
54459;BME280;40368;49.350;8.152;2024-03-02T01:56:52;989.9;;;10.25;55.17
54459;BME280;40368;49.350;8.152;2024-03-02T01:57:52;989.8;;;10.22;55.06
54459;BME280;40368;49.350;8.152;2024-03-02T01:58:52;989.8;;;10.18;55.1
54459;BME280;40368;49.350;8.152;2024-03-02T01:59:52;989.8;;;10.14;55.36
54459;BME280;40368;49.350;8.152;2024-03-02T02:00:52;989.8;;;10.17;55.37
54459;BME280;40368;49.350;8.152;2024-03-02T02:01:52;989.7;;;10.14;55.4
54459;BME280;40368;49.350;8.152;2024-03-02T02:02:52;989.7;;;10.17;55.38
54459;BME280;40368;49.350;8.152;2024-03-02T02:03:52;989.7;;;10.16;55.31
54459;BME280;40368;49.350;8.152;2024-03-02T02:04:52;989.7;;;10.16;55.24
54459;BME280;40368;49.350;8.152;2024-03-02T02:05:52;989.7;;;10.17;55.21
54459;BME280;40368;49.350;8.152;2024-03-02T02:06:52;989.7;;;10.16;55
54459;BME280;40368;49.350;8.152;2024-03-02T02:07:52;989.7;;;10.16;55.51
54459;BME280;40368;49.350;8.152;2024-03-02T02:08:52;989.7;;;10.17;55.31
54459;BME280;40368;49.350;8.152;2024-03-02T02:09:52;989.7;;;10.18;55.12
54459;BME280;40368;49.350;8.152;2024-03-02T02:10:52;989.7;;;10.18;55.06
54459;BME280;40368;49.350;8.152;2024-03-02T02:11:53;989.7;;;10.18;55.36
54459;BME280;40368;49.350;8.152;2024-03-02T02:12:52;989.7;;;10.22;55.27
54459;BME280;40368;49.350;8.152;2024-03-02T02:13:52;989.6;;;10.22;54.94
54459;BME280;40368;49.350;8.152;2024-03-02T02:14:52;989.7;;;10.28;55.22
54459;BME280;40368;49.350;8.152;2024-03-02T02:15:53;989.6;;;10.32;54.92
54459;BME280;40368;49.350;8.152;2024-03-02T02:16:52;989.7;;;10.34;54.83
54459;BME280;40368;49.350;8.152;2024-03-02T02:17:52;989.7;;;10.34;54.81
54459;BME280;40368;49.350;8.152;2024-03-02T02:18:52;989.7;;;10.34;54.78
54459;BME280;40368;49.350;8.152;2024-03-02T02:19:52;989.7;;;10.33;54.98
54459;BME280;40368;49.350;8.152;2024-03-02T02:20:52;989.7;;;10.33;54.57
54459;BME280;40368;49.350;8.152;2024-03-02T02:21:52;989.7;;;10.35;54.67
54459;BME280;40368;49.350;8.152;2024-03-02T02:22:56;989.7;;;10.35;54.55
54459;BME280;40368;49.350;8.152;2024-03-02T02:23:52;989.7;;;10.36;54.78
54459;BME280;40368;49.350;8.152;2024-03-02T02:24:52;989.6;;;10.37;54.55
54459;BME280;40368;49.350;8.152;2024-03-02T02:25:52;989.7;;;10.36;54.32
54459;BME280;40368;49.350;8.152;2024-03-02T02:26:52;989.7;;;10.32;54.66
54459;BME280;40368;49.350;8.152;2024-03-02T02:27:52;989.7;;;10.33;54.66
54459;BME280;40368;49.350;8.152;2024-03-02T02:28:52;989.7;;;10.32;54.45
54459;BME280;40368;49.350;8.152;2024-03-02T02:29:52;989.6;;;10.28;54.63
54459;BME280;40368;49.350;8.152;2024-03-02T02:30:54;989.6;;;10.27;54.68
54459;BME280;40368;49.350;8.152;2024-03-02T02:31:52;989.6;;;10.26;54.55
54459;BME280;40368;49.350;8.152;2024-03-02T02:32:52;989.6;;;10.25;54.46
54459;BME280;40368;49.350;8.152;2024-03-02T02:33:52;989.6;;;10.2;54.72
54459;BME280;40368;49.350;8.152;2024-03-02T02:34:52;989.6;;;10.16;54.69
54459;BME280;40368;49.350;8.152;2024-03-02T02:35:52;989.5;;;10.13;54.93
54459;BME280;40368;49.350;8.152;2024-03-02T02:36:52;989.6;;;10.09;54.95
54459;BME280;40368;49.350;8.152;2024-03-02T02:37:52;989.6;;;10.06;54.79
54459;BME280;40368;49.350;8.152;2024-03-02T02:38:52;989.6;;;10.04;55.06
54459;BME280;40368;49.350;8.152;2024-03-02T02:39:53;989.6;;;10.03;55.26
54459;BME280;40368;49.350;8.152;2024-03-02T02:40:53;989.6;;;10;54.99
54459;BME280;40368;49.350;8.152;2024-03-02T02:41:52;989.6;;;9.93;55.39
54459;BME280;40368;49.350;8.152;2024-03-02T02:42:52;989.5;;;9.93;55.19
54459;BME280;40368;49.350;8.152;2024-03-02T02:43:52;989.5;;;9.96;55.28
54459;BME280;40368;49.350;8.152;2024-03-02T02:44:52;989.5;;;10;54.92
54459;BME280;40368;49.350;8.152;2024-03-02T02:45:52;989.4;;;10.02;55.24
54459;BME280;40368;49.350;8.152;2024-03-02T02:46:52;989.4;;;10.01;54.8
54459;BME280;40368;49.350;8.152;2024-03-02T02:47:52;989.4;;;10.03;55.05
54459;BME280;40368;49.350;8.152;2024-03-02T02:48:52;989.4;;;10.03;54.95
54459;BME280;40368;49.350;8.152;2024-03-02T02:49:52;989.4;;;10.04;54.86
54459;BME280;40368;49.350;8.152;2024-03-02T02:50:53;989.4;;;10.06;55.07
54459;BME280;40368;49.350;8.152;2024-03-02T02:51:52;989.4;;;10.08;54.58
54459;BME280;40368;49.350;8.152;2024-03-02T02:52:52;989.4;;;10.1;55.26
54459;BME280;40368;49.350;8.152;2024-03-02T02:53:52;989.4;;;10.13;55.03
54459;BME280;40368;49.350;8.152;2024-03-02T02:54:52;989.4;;;10.18;54.43
54459;BME280;40368;49.350;8.152;2024-03-02T02:55:52;989.4;;;10.2;54.38
54459;BME280;40368;49.350;8.152;2024-03-02T02:56:52;989.4;;;10.17;54.78
54459;BME280;40368;49.350;8.152;2024-03-02T02:57:52;989.3;;;10.2;54.38
54459;BME280;40368;49.350;8.152;2024-03-02T02:58:53;989.4;;;10.22;54.51
54459;BME280;40368;49.350;8.152;2024-03-02T02:59:52;989.3;;;10.22;54.46
54459;BME280;40368;49.350;8.152;2024-03-02T03:00:52;989.4;;;10.18;54
54459;BME280;40368;49.350;8.152;2024-03-02T03:01:52;989.4;;;10.16;54.43
54459;BME280;40368;49.350;8.152;2024-03-02T03:02:52;989.3;;;10.12;54.07
54459;BME280;40368;49.350;8.152;2024-03-02T03:03:54;989.3;;;10.05;54.58
54459;BME280;40368;49.350;8.152;2024-03-02T03:04:52;989.3;;;10;54.82
54459;BME280;40368;49.350;8.152;2024-03-02T03:05:52;989.3;;;10.03;54.49
54459;BME280;40368;49.350;8.152;2024-03-02T03:06:52;989.3;;;10.04;54.42
54459;BME280;40368;49.350;8.152;2024-03-02T03:07:52;989.3;;;10.03;54.77
54459;BME280;40368;49.350;8.152;2024-03-02T03:08:52;989.3;;;10.01;54.12
54459;BME280;40368;49.350;8.152;2024-03-02T03:09:52;989.3;;;9.93;54.69
54459;BME280;40368;49.350;8.152;2024-03-02T03:10:52;989.3;;;9.92;54.66
54459;BME280;40368;49.350;8.152;2024-03-02T03:11:52;989.3;;;9.93;55.07
54459;BME280;40368;49.350;8.152;2024-03-02T03:12:52;989.2;;;9.93;54.86
54459;BME280;40368;49.350;8.152;2024-03-02T03:13:52;989.2;;;9.92;54.85
54459;BME280;40368;49.350;8.152;2024-03-02T03:14:52;989.3;;;9.91;54.82
54459;BME280;40368;49.350;8.152;2024-03-02T03:15:53;989.3;;;9.89;54.75
54459;BME280;40368;49.350;8.152;2024-03-02T03:16:52;989.3;;;9.84;54.82
54459;BME280;40368;49.350;8.152;2024-03-02T03:17:52;989.4;;;9.82;55.06
54459;BME280;40368;49.350;8.152;2024-03-02T03:18:52;989.3;;;9.81;55.1
54459;BME280;40368;49.350;8.152;2024-03-02T03:19:54;989.3;;;9.79;54.92
54459;BME280;40368;49.350;8.152;2024-03-02T03:20:52;989.3;;;9.78;54.81
54459;BME280;40368;49.350;8.152;2024-03-02T03:21:52;989.3;;;9.74;54.96
54459;BME280;40368;49.350;8.152;2024-03-02T03:22:52;989.3;;;9.74;55.39
54459;BME280;40368;49.350;8.152;2024-03-02T03:23:52;989.3;;;9.81;55.58
54459;BME280;40368;49.350;8.152;2024-03-02T03:24:52;989.3;;;9.87;55.04
54459;BME280;40368;49.350;8.152;2024-03-02T03:25:52;989.2;;;9.92;54.97
54459;BME280;40368;49.350;8.152;2024-03-02T03:26:52;989.2;;;9.97;54.84
54459;BME280;40368;49.350;8.152;2024-03-02T03:27:52;989.3;;;10;54.85
54459;BME280;40368;49.350;8.152;2024-03-02T03:28:52;989.3;;;10.03;54.54
54459;BME280;40368;49.350;8.152;2024-03-02T03:29:52;989.3;;;10.05;54.7
54459;BME280;40368;49.350;8.152;2024-03-02T03:30:52;989.4;;;10.1;54.43
54459;BME280;40368;49.350;8.152;2024-03-02T03:31:52;989.4;;;10.1;54.21
54459;BME280;40368;49.350;8.152;2024-03-02T03:32:52;989.4;;;10.14;54.42
54459;BME280;40368;49.350;8.152;2024-03-02T03:33:53;989.4;;;10.17;53.95
54459;BME280;40368;49.350;8.152;2024-03-02T03:34:52;989.3;;;10.16;54.29
54459;BME280;40368;49.350;8.152;2024-03-02T03:35:52;989.3;;;10.14;53.75
54459;BME280;40368;49.350;8.152;2024-03-02T03:36:52;989.3;;;10.1;54.22
54459;BME280;40368;49.350;8.152;2024-03-02T03:37:52;989.2;;;10.03;53.97
54459;BME280;40368;49.350;8.152;2024-03-02T03:38:57;989.2;;;10.01;54.37
54459;BME280;40368;49.350;8.152;2024-03-02T03:39:52;989.2;;;10;54.08
54459;BME280;40368;49.350;8.152;2024-03-02T03:40:52;989.2;;;9.99;54.58
54459;BME280;40368;49.350;8.152;2024-03-02T03:41:52;989.2;;;10;54.29
54459;BME280;40368;49.350;8.152;2024-03-02T03:42:52;989.2;;;9.99;54.27
54459;BME280;40368;49.350;8.152;2024-03-02T03:43:52;989.2;;;9.99;53.83
54459;BME280;40368;49.350;8.152;2024-03-02T03:44:52;989.3;;;9.96;54.28
54459;BME280;40368;49.350;8.152;2024-03-02T03:45:52;989.3;;;9.92;54.26
54459;BME280;40368;49.350;8.152;2024-03-02T03:46:52;989.3;;;9.89;54.37
54459;BME280;40368;49.350;8.152;2024-03-02T03:47:52;989.3;;;9.87;54.3
54459;BME280;40368;49.350;8.152;2024-03-02T03:48:52;989.3;;;9.85;54.44
54459;BME280;40368;49.350;8.152;2024-03-02T03:49:52;989.4;;;9.85;54.39
54459;BME280;40368;49.350;8.152;2024-03-02T03:50:52;989.4;;;9.82;54.4
54459;BME280;40368;49.350;8.152;2024-03-02T03:51:52;989.4;;;9.76;54.76
54459;BME280;40368;49.350;8.152;2024-03-02T03:52:53;989.4;;;9.71;54.84
54459;BME280;40368;49.350;8.152;2024-03-02T03:53:52;989.4;;;9.68;54.54
54459;BME280;40368;49.350;8.152;2024-03-02T03:54:52;989.4;;;9.64;54.54
54459;BME280;40368;49.350;8.152;2024-03-02T03:55:52;989.4;;;9.64;55.21
54459;BME280;40368;49.350;8.152;2024-03-02T03:56:52;989.3;;;9.66;54.67
54459;BME280;40368;49.350;8.152;2024-03-02T03:57:52;989.4;;;9.66;55.28
54459;BME280;40368;49.350;8.152;2024-03-02T03:58:52;989.4;;;9.7;55.04
54459;BME280;40368;49.350;8.152;2024-03-02T03:59:52;989.4;;;9.76;54.95
54459;BME280;40368;49.350;8.152;2024-03-02T04:00:52;989.4;;;9.8;54.51
54459;BME280;40368;49.350;8.152;2024-03-02T04:01:52;989.4;;;9.83;54.87
54459;BME280;40368;49.350;8.152;2024-03-02T04:02:52;989.4;;;9.85;54.96
54459;BME280;40368;49.350;8.152;2024-03-02T04:03:53;989.4;;;9.89;54.27
54459;BME280;40368;49.350;8.152;2024-03-02T04:04:52;989.3;;;9.96;54.39
54459;BME280;40368;49.350;8.152;2024-03-02T04:05:52;989.4;;;9.97;54.41
54459;BME280;40368;49.350;8.152;2024-03-02T04:06:52;989.4;;;9.99;54
54459;BME280;40368;49.350;8.152;2024-03-02T04:07:52;989.3;;;10;54.11
54459;BME280;40368;49.350;8.152;2024-03-02T04:08:52;989.3;;;10.03;54.16
54459;BME280;40368;49.350;8.152;2024-03-02T04:09:52;989.4;;;10.01;54
54459;BME280;40368;49.350;8.152;2024-03-02T04:10:52;989.4;;;10;54.06
54459;BME280;40368;49.350;8.152;2024-03-02T04:11:52;989.4;;;10;54.23
54459;BME280;40368;49.350;8.152;2024-03-02T04:12:52;989.4;;;10.03;54.24
54459;BME280;40368;49.350;8.152;2024-03-02T04:13:52;989.3;;;10.05;54.3
54459;BME280;40368;49.350;8.152;2024-03-02T04:14:52;989.4;;;10.05;54.16
54459;BME280;40368;49.350;8.152;2024-03-02T04:15:52;989.4;;;10.05;53.86
54459;BME280;40368;49.350;8.152;2024-03-02T04:16:58;989.4;;;10;54
54459;BME280;40368;49.350;8.152;2024-03-02T04:17:52;989.4;;;9.99;54.01
54459;BME280;40368;49.350;8.152;2024-03-02T04:18:52;989.4;;;9.99;53.86
54459;BME280;40368;49.350;8.152;2024-03-02T04:19:52;989.5;;;9.97;54.04
54459;BME280;40368;49.350;8.152;2024-03-02T04:20:52;989.5;;;9.97;54.07
54459;BME280;40368;49.350;8.152;2024-03-02T04:21:53;989.5;;;9.93;54.04
54459;BME280;40368;49.350;8.152;2024-03-02T04:22:52;989.5;;;9.88;53.75
54459;BME280;40368;49.350;8.152;2024-03-02T04:23:52;989.5;;;9.82;54.22
54459;BME280;40368;49.350;8.152;2024-03-02T04:24:53;989.5;;;9.79;54.19
54459;BME280;40368;49.350;8.152;2024-03-02T04:25:52;989.5;;;9.76;54.34
54459;BME280;40368;49.350;8.152;2024-03-02T04:26:52;989.6;;;9.72;54.54
54459;BME280;40368;49.350;8.152;2024-03-02T04:27:53;989.5;;;9.7;54.63
54459;BME280;40368;49.350;8.152;2024-03-02T04:28:53;989.6;;;9.72;54.59
54459;BME280;40368;49.350;8.152;2024-03-02T04:29:57;989.6;;;9.74;54.25
54459;BME280;40368;49.350;8.152;2024-03-02T04:30:52;989.6;;;9.72;54.2
54459;BME280;40368;49.350;8.152;2024-03-02T04:31:52;989.5;;;9.75;54.7
54459;BME280;40368;49.350;8.152;2024-03-02T04:32:52;989.6;;;9.8;54.56
54459;BME280;40368;49.350;8.152;2024-03-02T04:33:52;989.5;;;9.84;54.31
54459;BME280;40368;49.350;8.152;2024-03-02T04:34:52;989.5;;;9.89;54.65
54459;BME280;40368;49.350;8.152;2024-03-02T04:35:52;989.5;;;9.95;53.96
54459;BME280;40368;49.350;8.152;2024-03-02T04:36:52;989.5;;;9.95;54.08
54459;BME280;40368;49.350;8.152;2024-03-02T04:37:52;989.5;;;9.93;53.55
54459;BME280;40368;49.350;8.152;2024-03-02T04:38:52;989.5;;;9.89;53.98
54459;BME280;40368;49.350;8.152;2024-03-02T04:39:52;989.5;;;9.91;53.86
54459;BME280;40368;49.350;8.152;2024-03-02T04:40:52;989.5;;;9.96;54.34
54459;BME280;40368;49.350;8.152;2024-03-02T04:41:52;989.5;;;9.99;54.36
54459;BME280;40368;49.350;8.152;2024-03-02T04:42:52;989.5;;;10.05;54.31
54459;BME280;40368;49.350;8.152;2024-03-02T04:43:52;989.5;;;10.1;53.75
54459;BME280;40368;49.350;8.152;2024-03-02T04:44:52;989.5;;;10.12;54.06
54459;BME280;40368;49.350;8.152;2024-03-02T04:45:52;989.5;;;10.13;53.9
54459;BME280;40368;49.350;8.152;2024-03-02T04:46:52;989.6;;;10.12;53.49
54459;BME280;40368;49.350;8.152;2024-03-02T04:47:52;989.5;;;10.12;53.88
54459;BME280;40368;49.350;8.152;2024-03-02T04:48:52;989.6;;;10.12;53.41
54459;BME280;40368;49.350;8.152;2024-03-02T04:49:52;989.6;;;10.13;53.45
54459;BME280;40368;49.350;8.152;2024-03-02T04:50:52;989.5;;;10.1;53.74
54459;BME280;40368;49.350;8.152;2024-03-02T04:51:52;989.6;;;10.1;53.72
54459;BME280;40368;49.350;8.152;2024-03-02T04:52:52;989.6;;;10.09;53.83
54459;BME280;40368;49.350;8.152;2024-03-02T04:53:52;989.6;;;10.07;53.61
54459;BME280;40368;49.350;8.152;2024-03-02T04:54:52;989.6;;;10.03;53.68
54459;BME280;40368;49.350;8.152;2024-03-02T04:55:52;989.6;;;9.97;53.85
54459;BME280;40368;49.350;8.152;2024-03-02T04:56:52;989.6;;;9.93;53.53
54459;BME280;40368;49.350;8.152;2024-03-02T04:57:52;989.5;;;9.89;54.3
54459;BME280;40368;49.350;8.152;2024-03-02T04:58:52;989.6;;;9.85;54.06
54459;BME280;40368;49.350;8.152;2024-03-02T04:59:52;989.5;;;9.81;54.11
54459;BME280;40368;49.350;8.152;2024-03-02T05:00:52;989.5;;;9.79;54.35
54459;BME280;40368;49.350;8.152;2024-03-02T05:01:52;989.5;;;9.79;54.39
54459;BME280;40368;49.350;8.152;2024-03-02T05:02:52;989.5;;;9.8;54.19
54459;BME280;40368;49.350;8.152;2024-03-02T05:03:52;989.5;;;9.8;54.49
54459;BME280;40368;49.350;8.152;2024-03-02T05:04:53;989.6;;;9.8;54.53
54459;BME280;40368;49.350;8.152;2024-03-02T05:05:52;989.6;;;9.82;54.59
54459;BME280;40368;49.350;8.152;2024-03-02T05:06:52;989.6;;;9.88;54.32
54459;BME280;40368;49.350;8.152;2024-03-02T05:07:51;989.7;;;9.93;54.02
54459;BME280;40368;49.350;8.152;2024-03-02T05:08:52;989.6;;;9.99;53.88
54459;BME280;40368;49.350;8.152;2024-03-02T05:09:52;989.6;;;10.04;54.04
54459;BME280;40368;49.350;8.152;2024-03-02T05:10:52;989.6;;;10.1;54.1
54459;BME280;40368;49.350;8.152;2024-03-02T05:11:53;989.6;;;10.16;54.08
54459;BME280;40368;49.350;8.152;2024-03-02T05:12:52;989.6;;;10.18;53.97
54459;BME280;40368;49.350;8.152;2024-03-02T05:13:52;989.6;;;10.22;53.75
54459;BME280;40368;49.350;8.152;2024-03-02T05:14:52;989.6;;;10.26;53.46
54459;BME280;40368;49.350;8.152;2024-03-02T05:15:52;989.6;;;10.3;53.71
54459;BME280;40368;49.350;8.152;2024-03-02T05:16:52;989.6;;;10.3;53.53
54459;BME280;40368;49.350;8.152;2024-03-02T05:17:51;989.6;;;10.26;53.45
54459;BME280;40368;49.350;8.152;2024-03-02T05:18:52;989.6;;;10.26;53.72
54459;BME280;40368;49.350;8.152;2024-03-02T05:19:52;989.6;;;10.26;53.75
54459;BME280;40368;49.350;8.152;2024-03-02T05:20:52;989.6;;;10.26;53.62
54459;BME280;40368;49.350;8.152;2024-03-02T05:21:52;989.6;;;10.26;53.75
54459;BME280;40368;49.350;8.152;2024-03-02T05:22:52;989.6;;;10.26;53.71
54459;BME280;40368;49.350;8.152;2024-03-02T05:23:52;989.6;;;10.25;53.77
54459;BME280;40368;49.350;8.152;2024-03-02T05:24:52;989.6;;;10.25;53.71
54459;BME280;40368;49.350;8.152;2024-03-02T05:25:52;989.6;;;10.26;53.86
54459;BME280;40368;49.350;8.152;2024-03-02T05:26:52;989.6;;;10.21;53.87
54459;BME280;40368;49.350;8.152;2024-03-02T05:27:52;989.6;;;10.18;53.89
54459;BME280;40368;49.350;8.152;2024-03-02T05:28:52;989.6;;;10.17;54.08
54459;BME280;40368;49.350;8.152;2024-03-02T05:29:52;989.7;;;10.16;54.32
54459;BME280;40368;49.350;8.152;2024-03-02T05:30:52;989.7;;;10.14;54.55
54459;BME280;40368;49.350;8.152;2024-03-02T05:31:53;989.6;;;10.1;54.45
54459;BME280;40368;49.350;8.152;2024-03-02T05:32:52;989.6;;;10.07;54.49
54459;BME280;40368;49.350;8.152;2024-03-02T05:33:52;989.7;;;10.06;54.62
54459;BME280;40368;49.350;8.152;2024-03-02T05:34:52;989.7;;;10.08;54.73